Time;durP1;ratioP1;P1;durP2;ratioP2;P2;SDS_P1;SDS_P2;PMS_P1;PMS_P2;Temp;Humidity;BMP_temperature;BMP_pressure;BME280_temperature;BME280_humidity;BME280_pressure;Samples;Min_cycle;Max_cycle;Signal;HPM_P1;HPM_P2
2021/10/29 00:01:52;;;;;;;42.58;26.85;;;;;;;;;;6174072;28;20139;-65
2021/10/29 00:04:57;;;;;;;45.97;27.35;;;;;;;;;;6185806;28;20039;-64
2021/10/29 00:07:59;;;;;;;41.17;25.35;;;;;;;;;;6175914;28;20073;-65
2021/10/29 00:11:00;;;;;;;42.72;26.70;;;;;;;;;;6180325;28;20054;-66
2021/10/29 00:14:01;;;;;;;43.90;26.63;;;;;;;;;;6196507;28;20065;-65
2021/10/29 00:17:03;;;;;;;46.33;27.02;;;;;;;;;;6179757;28;20042;-65
2021/10/29 00:20:06;;;;;;;42.25;27.25;;;;;;;;;;6192682;28;20191;-66
2021/10/29 00:23:08;;;;;;;44.28;27.27;;;;;;;;;;6203501;28;20164;-65
2021/10/29 00:26:10;;;;;;;43.38;27.23;;;;;;;;;;6192579;28;20046;-66
2021/10/29 00:29:11;;;;;;;40.10;26.75;;;;;;;;;;6187466;28;20069;-64
2021/10/29 00:32:13;;;;;;;45.85;27.42;;;;;;;;;;6173918;28;20573;-66
2021/10/29 00:35:15;;;;;;;39.20;25.63;;;;;;;;;;6183814;28;20429;-65
2021/10/29 00:38:17;;;;;;;41.38;26.77;;;;;;;;;;6185182;28;20190;-65
2021/10/29 00:41:18;;;;;;;41.35;26.63;;;;;;;;;;6182841;28;20054;-66
2021/10/29 00:44:24;;;;;;;41.67;26.90;;;;;;;;;;6195793;28;20100;-65
2021/10/29 00:47:25;;;;;;;39.80;27.55;;;;;;;;;;6177604;28;20042;-64
2021/10/29 00:50:28;;;;;;;40.53;26.55;;;;;;;;;;6185295;28;20046;-65
2021/10/29 00:53:30;;;;;;;41.15;26.58;;;;;;;;;;6192906;28;20060;-65
2021/10/29 00:56:31;;;;;;;45.55;28.08;;;;;;;;;;6184554;28;20106;-65
2021/10/29 00:59:32;;;;;;;39.47;25.67;;;;;;;;;;6191853;28;20046;-65
2021/10/29 01:02:34;;;;;;;40.03;26.13;;;;;;;;;;6178299;28;20137;-64
2021/10/29 01:05:37;;;;;;;42.85;26.08;;;;;;;;;;6183256;28;20109;-66
2021/10/29 01:08:38;;;;;;;42.75;25.70;;;;;;;;;;6196778;28;20042;-65
2021/10/29 01:11:41;;;;;;;40.83;26.40;;;;;;;;;;6190190;28;20065;-65
2021/10/29 01:14:43;;;;;;;39.60;26.25;;;;;;;;;;6197311;28;20497;-65
2021/10/29 01:17:45;;;;;;;41.78;25.88;;;;;;;;;;6179817;28;20099;-65
2021/10/29 01:20:47;;;;;;;40.42;25.17;;;;;;;;;;6181160;28;20130;-65
2021/10/29 01:23:49;;;;;;;42.65;26.38;;;;;;;;;;6196534;28;20477;-65
2021/10/29 01:26:50;;;;;;;44.53;27.50;;;;;;;;;;6186144;28;20133;-65
2021/10/29 01:29:52;;;;;;;40.38;27.67;;;;;;;;;;6191705;28;20062;-65
2021/10/29 01:32:53;;;;;;;45.38;25.33;;;;;;;;;;6179896;28;20478;-66
2021/10/29 01:35:57;;;;;;;42.47;26.80;;;;;;;;;;6202160;28;20124;-64
2021/10/29 01:38:58;;;;;;;41.17;27.40;;;;;;;;;;6222601;28;20054;-64
2021/10/29 01:42:00;;;;;;;45.45;28.80;;;;;;;;;;6213113;28;20495;-64
2021/10/29 01:45:01;;;;;;;38.85;26.50;;;;;;;;;;6225842;28;20054;-64
2021/10/29 01:48:02;;;;;;;44.85;27.20;;;;;;;;;;6205051;28;20557;-64
2021/10/29 01:51:05;;;;;;;43.03;27.05;;;;;;;;;;6209290;28;20574;-64
2021/10/29 01:54:06;;;;;;;43.60;26.77;;;;;;;;;;6218095;28;20047;-64
2021/10/29 01:57:08;;;;;;;41.35;27.08;;;;;;;;;;6184554;28;20061;-65
2021/10/29 02:00:10;;;;;;;46.25;27.33;;;;;;;;;;6193487;28;20116;-66
2021/10/29 02:03:11;;;;;;;37.42;26.10;;;;;;;;;;6183991;28;20058;-65
2021/10/29 02:06:14;;;;;;;44.05;26.73;;;;;;;;;;6184009;28;20099;-64
2021/10/29 02:09:15;;;;;;;41.35;26.60;;;;;;;;;;6196454;28;20034;-64
2021/10/29 02:12:17;;;;;;;39.83;26.67;;;;;;;;;;6184394;28;20049;-65
2021/10/29 02:15:18;;;;;;;39.58;26.08;;;;;;;;;;6195216;28;20488;-64
2021/10/29 02:18:19;;;;;;;39.42;26.13;;;;;;;;;;6186813;28;20042;-66
2021/10/29 02:21:22;;;;;;;40.33;25.20;;;;;;;;;;6201624;28;20061;-63
2021/10/29 02:24:23;;;;;;;44.60;27.23;;;;;;;;;;6192865;28;20053;-64
2021/10/29 02:27:25;;;;;;;46.70;27.38;;;;;;;;;;6184897;28;20057;-67
2021/10/29 02:30:26;;;;;;;41.53;25.23;;;;;;;;;;6186842;28;20038;-67
2021/10/29 02:33:27;;;;;;;40.03;24.70;;;;;;;;;;6179161;28;20141;-68
2021/10/29 02:36:30;;;;;;;37.47;23.88;;;;;;;;;;6206514;28;20050;-67
2021/10/29 02:39:32;;;;;;;38.30;24.98;;;;;;;;;;6204840;28;20046;-66
2021/10/29 02:42:33;;;;;;;39.38;25.15;;;;;;;;;;6182552;28;20485;-67
2021/10/29 02:45:34;;;;;;;38.45;24.52;;;;;;;;;;6183684;28;20648;-67
2021/10/29 02:48:36;;;;;;;36.83;23.95;;;;;;;;;;6197706;28;20086;-65
2021/10/29 02:51:38;;;;;;;41.13;25.60;;;;;;;;;;6184587;28;20503;-66
2021/10/29 02:54:40;;;;;;;40.05;24.75;;;;;;;;;;6203045;28;20109;-66
2021/10/29 02:57:42;;;;;;;35.40;24.30;;;;;;;;;;6208034;28;20053;-65
2021/10/29 03:00:43;;;;;;;38.92;24.73;;;;;;;;;;6211664;28;20042;-66
2021/10/29 03:03:44;;;;;;;38.42;24.38;;;;;;;;;;6216879;28;20042;-65
2021/10/29 03:06:47;;;;;;;36.90;23.05;;;;;;;;;;6183816;28;20181;-66
2021/10/29 03:09:49;;;;;;;34.03;22.45;;;;;;;;;;6193880;28;20046;-64
2021/10/29 03:12:50;;;;;;;36.67;23.35;;;;;;;;;;6184948;28;20098;-65
2021/10/29 03:15:52;;;;;;;34.83;22.50;;;;;;;;;;6182899;28;20050;-65
2021/10/29 03:18:53;;;;;;;36.08;23.42;;;;;;;;;;6205805;28;20631;-65
2021/10/29 03:21:56;;;;;;;32.42;22.55;;;;;;;;;;6190417;28;20491;-65
2021/10/29 03:24:57;;;;;;;37.10;23.17;;;;;;;;;;6207623;28;20197;-65
2021/10/29 03:27:59;;;;;;;38.50;21.88;;;;;;;;;;6186485;28;20378;-65
2021/10/29 03:31:00;;;;;;;35.22;22.35;;;;;;;;;;6199469;28;20596;-64
2021/10/29 03:34:02;;;;;;;37.55;22.65;;;;;;;;;;6215919;28;20045;-64
2021/10/29 03:37:11;;;;;;;35.10;20.67;;;;;;;;;;6208945;28;20381;-63
2021/10/29 03:40:18;;;;;;;31.45;21.30;;;;;;;;;;6201919;28;20137;-65
2021/10/29 03:43:24;;;;;;;33.05;21.88;;;;;;;;;;6197227;28;20125;-63
2021/10/29 03:46:27;;;;;;;33.47;21.33;;;;;;;;;;6180963;28;20043;-65
2021/10/29 03:49:32;;;;;;;33.47;22.55;;;;;;;;;;6190238;28;20104;-64
2021/10/29 03:52:37;;;;;;;31.55;21.45;;;;;;;;;;6181865;28;20055;-64
2021/10/29 03:55:40;;;;;;;30.50;21.33;;;;;;;;;;6193187;28;20066;-65
2021/10/29 03:58:42;;;;;;;30.42;21.02;;;;;;;;;;6217580;28;20084;-64
2021/10/29 04:01:43;;;;;;;31.20;21.30;;;;;;;;;;6184906;28;20431;-66
2021/10/29 04:04:44;;;;;;;34.55;21.70;;;;;;;;;;6206063;28;20172;-66
2021/10/29 04:07:47;;;;;;;35.92;22.30;;;;;;;;;;6189192;28;20090;-66
2021/10/29 04:10:50;;;;;;;32.95;21.40;;;;;;;;;;6184587;28;20050;-65
2021/10/29 04:13:51;;;;;;;39.45;21.38;;;;;;;;;;6188204;28;20046;-64
2021/10/29 04:16:53;;;;;;;36.75;21.33;;;;;;;;;;6177472;28;20086;-66
2021/10/29 04:19:54;;;;;;;36.00;21.88;;;;;;;;;;6196716;28;20091;-67
2021/10/29 04:22:57;;;;;;;32.10;21.55;;;;;;;;;;6186906;28;20038;-67
2021/10/29 04:25:59;;;;;;;34.88;22.30;;;;;;;;;;6187067;28;20157;-67
2021/10/29 04:29:01;;;;;;;33.92;22.90;;;;;;;;;;6195583;28;20043;-67
2021/10/29 04:32:03;;;;;;;36.58;23.95;;;;;;;;;;6181356;28;20042;-67
2021/10/29 04:35:05;;;;;;;36.25;23.50;;;;;;;;;;6195082;28;20127;-68
2021/10/29 04:38:08;;;;;;;34.92;23.38;;;;;;;;;;6209752;28;20042;-66
2021/10/29 04:41:10;;;;;;;36.30;23.27;;;;;;;;;;6197910;28;20204;-67
2021/10/29 04:44:11;;;;;;;35.83;24.23;;;;;;;;;;6223451;28;20045;-64
2021/10/29 04:47:13;;;;;;;38.53;24.67;;;;;;;;;;6190752;28;20038;-67
2021/10/29 04:50:14;;;;;;;37.90;24.65;;;;;;;;;;6198147;28;20054;-67
2021/10/29 04:53:17;;;;;;;38.53;25.50;;;;;;;;;;6218744;28;20068;-67
2021/10/29 04:56:18;;;;;;;43.72;26.08;;;;;;;;;;6210045;28;20509;-65
2021/10/29 04:59:20;;;;;;;41.35;26.15;;;;;;;;;;6219909;28;20123;-67
2021/10/29 05:02:21;;;;;;;42.90;27.48;;;;;;;;;;6202941;28;20505;-66
2021/10/29 05:05:22;;;;;;;42.60;27.48;;;;;;;;;;6206285;28;20104;-66
2021/10/29 05:08:25;;;;;;;47.95;28.88;;;;;;;;;;6218884;28;20045;-67
2021/10/29 05:11:27;;;;;;;46.13;27.67;;;;;;;;;;6209606;28;20378;-64
2021/10/29 05:14:28;;;;;;;40.90;27.73;;;;;;;;;;6219846;28;20046;-65
2021/10/29 05:17:29;;;;;;;44.63;28.27;;;;;;;;;;6205568;28;20042;-65
2021/10/29 05:20:31;;;;;;;48.97;30.08;;;;;;;;;;6212535;28;20060;-64
2021/10/29 05:23:34;;;;;;;50.38;28.75;;;;;;;;;;6217877;28;20431;-62
2021/10/29 05:26:36;;;;;;;44.00;28.67;;;;;;;;;;6209692;28;20049;-64
2021/10/29 05:29:38;;;;;;;41.38;28.50;;;;;;;;;;6222231;28;20112;-63
2021/10/29 05:32:40;;;;;;;47.00;28.48;;;;;;;;;;6204984;28;20050;-63
2021/10/29 05:35:41;;;;;;;44.13;27.55;;;;;;;;;;6188196;28;20053;-63
2021/10/29 05:38:44;;;;;;;41.85;27.73;;;;;;;;;;6191742;28;20065;-63
2021/10/29 05:41:48;;;;;;;41.38;27.30;;;;;;;;;;6187459;28;20112;-65
2021/10/29 05:44:50;;;;;;;50.22;29.10;;;;;;;;;;6196435;28;20050;-63
2021/10/29 05:47:51;;;;;;;40.42;26.48;;;;;;;;;;6180064;28;20188;-64
2021/10/29 05:50:54;;;;;;;42.33;27.60;;;;;;;;;;6179976;28;20066;-64
2021/10/29 05:54:10;;;;;;;39.27;27.20;;;;;;;;;;6214047;28;20058;-64
2021/10/29 05:57:12;;;;;;;42.50;28.13;;;;;;;;;;6204848;28;20472;-64
2021/10/29 06:00:14;;;;;;;47.90;27.25;;;;;;;;;;6207085;28;20042;-65
2021/10/29 06:03:15;;;;;;;45.78;27.25;;;;;;;;;;6195050;28;20054;-63
2021/10/29 06:06:17;;;;;;;49.38;28.58;;;;;;;;;;6189741;28;20099;-64
2021/10/29 06:09:20;;;;;;;44.83;28.70;;;;;;;;;;6206733;28;20453;-64
2021/10/29 06:12:21;;;;;;;41.55;28.17;;;;;;;;;;6205879;28;20046;-66
2021/10/29 06:15:23;;;;;;;43.30;28.38;;;;;;;;;;6185846;28;20096;-67
2021/10/29 06:18:26;;;;;;;40.22;26.10;;;;;;;;;;6188769;28;20042;-64
2021/10/29 06:21:35;;;;;;;40.92;27.65;;;;;;;;;;6179754;28;20133;-64
2021/10/29 06:24:39;;;;;;;43.60;27.35;;;;;;;;;;6210609;28;20039;-64
2021/10/29 06:30:59;;;;;;;41.20;25.40;;;;;;;;;;6198326;28;20046;-64
2021/10/29 06:34:01;;;;;;;43.28;25.80;;;;;;;;;;6190092;28;20050;-64
2021/10/29 06:37:02;;;;;;;43.45;27.13;;;;;;;;;;6181027;28;20137;-64
2021/10/29 06:40:10;;;;;;;40.25;26.40;;;;;;;;;;6190269;28;20043;-64
2021/10/29 06:43:16;;;;;;;43.25;26.40;;;;;;;;;;6189482;28;20042;-64
2021/10/29 06:46:24;;;;;;;42.15;26.92;;;;;;;;;;6180126;28;20116;-64
2021/10/29 06:59:47;;;;;;;;;;;;;;;;;;6191732;28;20057;-64
2021/10/29 07:42:38;;;;;;;40.83;24.52;;;;;;;;;;6199517;28;20077;-66
2021/10/29 07:45:41;;;;;;;34.88;24.15;;;;;;;;;;6192205;28;20042;-66
2021/10/29 07:48:44;;;;;;;39.22;25.02;;;;;;;;;;6215564;28;20069;-66
2021/10/29 07:51:45;;;;;;;36.38;23.73;;;;;;;;;;6190543;28;20054;-66
2021/10/29 07:54:47;;;;;;;32.72;24.75;;;;;;;;;;6193201;28;20129;-64
2021/10/29 07:57:48;;;;;;;33.92;23.90;;;;;;;;;;6184463;28;20042;-65
2021/10/29 08:00:51;;;;;;;40.72;25.05;;;;;;;;;;6180865;28;20049;-65
2021/10/29 08:03:54;;;;;;;;;;;;;;;;;;6190302;28;20054;-66
2021/10/29 08:06:55;;;;;;;36.25;22.20;;;;;;;;;;6183385;28;19925;-66
2021/10/29 08:09:57;;;;;;;37.67;23.55;;;;;;;;;;6207975;28;20124;-63
2021/10/29 08:12:58;;;;;;;36.22;22.63;;;;;;;;;;6211577;28;20046;-63
2021/10/29 08:16:04;;;;;;;38.63;23.77;;;;;;;;;;6184813;28;20050;-64
2021/10/29 08:19:05;;;;;;;37.83;23.52;;;;;;;;;;6216917;28;20497;-64
2021/10/29 08:22:07;;;;;;;40.65;24.05;;;;;;;;;;6202097;28;20081;-63
2021/10/29 08:25:09;;;;;;;42.00;24.40;;;;;;;;;;6185817;28;20137;-64
2021/10/29 08:28:11;;;;;;;39.00;24.08;;;;;;;;;;6210008;28;20050;-63
2021/10/29 08:31:14;;;;;;;38.72;23.25;;;;;;;;;;6191543;28;20070;-63
2021/10/29 08:34:15;;;;;;;38.77;23.17;;;;;;;;;;6211889;28;20099;-63
2021/10/29 08:37:17;;;;;;;41.70;24.70;;;;;;;;;;6206258;28;20152;-63
2021/10/29 08:40:20;;;;;;;35.45;23.60;;;;;;;;;;6208400;28;20076;-64
2021/10/29 08:43:22;;;;;;;36.85;24.17;;;;;;;;;;6215202;28;20485;-65
2021/10/29 08:46:26;;;;;;;36.55;23.73;;;;;;;;;;6213291;28;20057;-65
2021/10/29 08:49:27;;;;;;;;;;;;;;;;;;6215981;28;20165;-63
2021/10/29 08:52:28;;;;;;;32.25;23.88;;;;;;;;;;6203729;28;20266;-63
2021/10/29 08:55:32;;;;;;;35.67;23.55;;;;;;;;;;6201703;28;20382;-64
2021/10/29 08:58:36;;;;;;;;;;;;;;;;;;6215355;28;20054;-64
2021/10/29 09:01:49;;;;;;;32.30;24.48;;;;;;;;;;6200163;28;20406;-64
2021/10/29 09:04:53;;;;;;;36.67;24.23;;;;;;;;;;6216043;28;20554;-64
2021/10/29 09:08:08;;;;;;;35.47;24.17;;;;;;;;;;6205071;28;21855;-65
2021/10/29 09:11:32;;;;;;;37.97;24.30;;;;;;;;;;6209570;28;20119;-63
2021/10/29 09:31:28;;;;;;;38.35;25.50;;;;;;;;;;6192137;28;20663;-65
2021/10/29 09:34:31;;;;;;;34.80;25.92;;;;;;;;;;6189929;28;20053;-65
2021/10/29 09:37:36;;;;;;;36.17;25.52;;;;;;;;;;6198616;28;20714;-64
2021/10/29 09:40:39;;;;;;;31.48;24.77;;;;;;;;;;6206373;28;20053;-64
2021/10/29 09:43:42;;;;;;;37.97;26.27;;;;;;;;;;6194095;28;20141;-65
2021/10/29 09:46:46;;;;;;;34.20;25.48;;;;;;;;;;6188776;28;20580;-64
2021/10/29 09:50:00;;;;;;;33.33;25.33;;;;;;;;;;6212386;28;20104;-65
2021/10/29 09:53:05;;;;;;;33.28;24.42;;;;;;;;;;6185034;28;20120;-66
2021/10/29 09:56:11;;;;;;;30.92;25.40;;;;;;;;;;6181602;28;20042;-63
2021/10/29 09:59:13;;;;;;;32.15;26.50;;;;;;;;;;6193031;28;20051;-65
2021/10/29 10:02:18;;;;;;;42.38;27.00;;;;;;;;;;6177358;28;20133;-65
2021/10/29 10:05:22;;;;;;;38.28;27.30;;;;;;;;;;6184431;28;20525;-65
2021/10/29 10:08:26;;;;;;;37.40;26.45;;;;;;;;;;6199332;28;20193;-64
2021/10/29 10:11:28;;;;;;;35.67;27.52;;;;;;;;;;6203979;28;20414;-64
2021/10/29 10:14:30;;;;;;;36.20;27.47;;;;;;;;;;6230973;28;20053;-64
2021/10/29 10:17:32;;;;;;;38.05;28.33;;;;;;;;;;6202229;28;20952;-65
2021/10/29 10:20:35;;;;;;;37.58;27.83;;;;;;;;;;6212754;28;20132;-65
2021/10/29 10:23:39;;;;;;;35.20;26.35;;;;;;;;;;6213404;28;20044;-64
2021/10/29 10:30:19;;;;;;;34.05;26.48;;;;;;;;;;6188725;28;20049;-64
2021/10/29 10:43:41;;;;;;;36.55;26.92;;;;;;;;;;6195316;28;20492;-65
2021/10/29 10:46:42;;;;;;;36.90;27.40;;;;;;;;;;6174761;28;20118;-64
2021/10/29 10:49:49;;;;;;;34.20;28.80;;;;;;;;;;6190776;28;20209;-65
2021/10/29 10:53:11;;;;;;;34.58;28.48;;;;;;;;;;6176797;28;20093;-65
2021/10/29 10:56:22;;;;;;;37.13;28.50;;;;;;;;;;6180877;28;20044;-65
2021/10/29 10:59:36;;;;;;;38.28;29.15;;;;;;;;;;6216699;28;20053;-65
2021/10/29 11:09:58;;;;;;;36.33;29.60;;;;;;;;;;6158820;28;20130;-66
2021/10/29 11:13:08;;;;;;;38.30;30.85;;;;;;;;;;6190436;28;20042;-66
2021/10/29 11:16:10;;;;;;;40.25;30.75;;;;;;;;;;6201083;28;20050;-67
2021/10/29 11:19:15;;;;;;;41.45;32.15;;;;;;;;;;6211653;28;20054;-66
2021/10/29 11:22:18;;;;;;;35.80;29.90;;;;;;;;;;6205573;28;20045;-66
2021/10/29 11:25:19;;;;;;;;;;;;;;;;;;6208874;28;20057;-67
2021/10/29 11:28:25;;;;;;;36.85;31.55;;;;;;;;;;6212598;28;20083;-65
2021/10/29 11:31:27;;;;;;;39.00;33.33;;;;;;;;;;6197679;28;20050;-68
2021/10/29 11:34:29;;;;;;;36.70;30.75;;;;;;;;;;6213202;28;20116;-66
2021/10/29 11:37:33;;;;;;;40.40;31.02;;;;;;;;;;6203123;28;21950;-66
2021/10/29 11:40:35;;;;;;;42.58;32.17;;;;;;;;;;6179271;28;20254;-68
2021/10/29 11:43:39;;;;;;;34.53;30.07;;;;;;;;;;6206670;28;20501;-66
2021/10/29 11:46:41;;;;;;;39.13;29.77;;;;;;;;;;6181193;28;20172;-66
2021/10/29 11:49:42;;;;;;;40.83;29.47;;;;;;;;;;6195948;28;20034;-65
2021/10/29 11:52:45;;;;;;;37.83;30.70;;;;;;;;;;6206991;28;20061;-66
2021/10/29 11:55:49;;;;;;;38.15;29.77;;;;;;;;;;6185920;28;20510;-66
2021/10/29 11:59:02;;;;;;;38.05;29.85;;;;;;;;;;6217749;28;20046;-68
2021/10/29 12:08:43;;;;;;;37.15;27.50;;;;;;;;;;6177287;28;20083;-65
2021/10/29 12:11:45;;;;;;;31.30;22.15;;;;;;;;;;6189532;28;20096;-65
2021/10/29 12:14:49;;;;;;;34.92;24.80;;;;;;;;;;6201567;28;20039;-65
2021/10/29 12:17:53;;;;;;;31.45;25.23;;;;;;;;;;6173261;28;20058;-64
2021/10/29 12:20:56;;;;;;;32.22;25.52;;;;;;;;;;6202390;28;20046;-64
2021/10/29 12:24:00;;;;;;;92.85;73.22;;;;;;;;;;6214772;28;20062;-64
2021/10/29 12:27:07;;;;;;;69.53;53.97;;;;;;;;;;6177979;28;20081;-63
2021/10/29 12:30:22;;;;;;;52.17;38.75;;;;;;;;;;6183613;28;20047;-66
2021/10/29 12:33:50;;;;;;;40.00;30.58;;;;;;;;;;6177217;28;20456;-66
2021/10/29 12:37:15;;;;;;;46.80;36.47;;;;;;;;;;6186743;28;20496;-66
2021/10/29 12:53:53;;;;;;;26.98;19.63;;;;;;;;;;6189204;28;20046;-67
2021/10/29 13:03:42;;;;;;;28.95;23.50;;;;;;;;;;6166975;28;20055;-66
2021/10/29 13:06:45;;;;;;;28.27;20.02;;;;;;;;;;6199201;28;20628;-66
2021/10/29 13:09:48;;;;;;;25.20;19.42;;;;;;;;;;6193494;28;20050;-65
2021/10/29 13:12:56;;;;;;;26.65;20.73;;;;;;;;;;6181988;28;20057;-67
2021/10/29 13:16:01;;;;;;;28.17;19.90;;;;;;;;;;6169660;28;20424;-68
2021/10/29 13:19:25;;;;;;;33.10;22.10;;;;;;;;;;6187265;28;20050;-67
2021/10/29 13:26:29;;;;;;;32.05;22.05;;;;;;;;;;6302608;27;20620;-69
2021/10/29 13:36:16;;;;;;;31.23;23.52;;;;;;;;;;6245674;28;20508;-68
2021/10/29 13:52:46;;;;;;;32.53;24.00;;;;;;;;;;6239241;28;20050;-68
2021/10/29 13:56:01;;;;;;;30.95;24.67;;;;;;;;;;6262084;28;20060;-68
2021/10/29 14:29:18;;;;;;;29.27;22.25;;;;;;;;;;6280483;28;20199;-67
2021/10/29 14:32:24;;;;;;;32.25;23.48;;;;;;;;;;6261323;28;20141;-67
2021/10/29 14:35:28;;;;;;;32.13;23.23;;;;;;;;;;6261480;28;20393;-67
2021/10/29 14:38:40;;;;;;;31.88;22.20;;;;;;;;;;6265730;28;20182;-67
2021/10/29 14:41:44;;;;;;;33.67;22.85;;;;;;;;;;6248788;28;20408;-67
2021/10/29 14:44:51;;;;;;;33.08;23.73;;;;;;;;;;6262535;28;20064;-67
2021/10/29 14:48:02;;;;;;;30.83;23.38;;;;;;;;;;6248572;28;20188;-67
2021/10/29 15:01:13;;;;;;;37.08;24.88;;;;;;;;;;6239404;28;20072;-69
2021/10/29 15:04:27;;;;;;;;;;;;;;;;;;6261226;28;20057;-67
2021/10/29 15:17:33;;;;;;;30.63;21.58;;;;;;;;;;6232830;28;20045;-67
2021/10/29 15:27:29;;;;;;;31.23;23.35;;;;;;;;;;6246088;28;20045;-66
2021/10/29 15:30:36;;;;;;;31.08;22.67;;;;;;;;;;6238052;28;20213;-68
2021/10/29 15:40:53;;;;;;;33.28;24.02;;;;;;;;;;6255269;28;20052;-67
2021/10/29 15:47:11;;;;;;;;;;;;;;;;;;6222084;28;20630;-67
2021/10/29 15:50:16;;;;;;;30.35;22.88;;;;;;;;;;6235194;28;19954;-67
2021/10/29 15:53:17;;;;;;;31.15;23.77;;;;;;;;;;6242669;28;20046;-67
2021/10/29 15:56:28;;;;;;;35.78;24.33;;;;;;;;;;6252764;28;20130;-67
2021/10/29 15:59:36;;;;;;;32.03;22.63;;;;;;;;;;6260829;28;20500;-66
2021/10/29 16:02:44;;;;;;;31.35;23.02;;;;;;;;;;6242347;28;20049;-66
2021/10/29 16:19:03;;;;;;;35.80;25.08;;;;;;;;;;6252477;28;20120;-65
2021/10/29 16:22:06;;;;;;;35.70;25.33;;;;;;;;;;6256686;28;20423;-65
2021/10/29 16:25:10;;;;;;;36.97;26.15;;;;;;;;;;6262147;28;20516;-66
2021/10/29 16:28:14;;;;;;;34.55;26.00;;;;;;;;;;6257810;28;20045;-65
2021/10/29 16:31:15;;;;;;;36.08;26.40;;;;;;;;;;6246603;28;20159;-66
2021/10/29 16:34:17;;;;;;;37.58;26.48;;;;;;;;;;6258936;28;20041;-65
2021/10/29 16:37:18;;;;;;;43.95;28.25;;;;;;;;;;6247216;28;20052;-65
2021/10/29 16:40:20;;;;;;;38.00;28.00;;;;;;;;;;6250824;28;20108;-65
2021/10/29 16:43:23;;;;;;;40.85;27.80;;;;;;;;;;6264440;28;20068;-65
2021/10/29 16:46:25;;;;;;;38.28;28.58;;;;;;;;;;6230311;28;20045;-65
2021/10/29 16:49:26;;;;;;;43.30;28.15;;;;;;;;;;6255506;28;20514;-65
2021/10/29 16:52:27;;;;;;;42.10;28.48;;;;;;;;;;6249202;28;20877;-65
2021/10/29 16:55:29;;;;;;;39.20;28.48;;;;;;;;;;6245778;28;20518;-65
2021/10/29 16:58:32;;;;;;;42.45;28.17;;;;;;;;;;6263447;28;20171;-64
2021/10/29 17:01:34;;;;;;;38.03;27.50;;;;;;;;;;6243553;28;20625;-65
2021/10/29 17:04:35;;;;;;;38.30;27.52;;;;;;;;;;6257542;28;20541;-64
2021/10/29 17:07:37;;;;;;;41.60;28.42;;;;;;;;;;6249375;28;20040;-65
2021/10/29 17:10:38;;;;;;;42.45;30.13;;;;;;;;;;6250380;28;20045;-65
2021/10/29 17:13:42;;;;;;;43.00;28.58;;;;;;;;;;6263079;28;20067;-65
2021/10/29 17:16:43;;;;;;;40.97;28.60;;;;;;;;;;6241135;28;20143;-65
2021/10/29 17:19:45;;;;;;;39.13;28.27;;;;;;;;;;6258205;28;20144;-65
2021/10/29 17:22:46;;;;;;;41.42;29.02;;;;;;;;;;6249750;28;20045;-64
2021/10/29 17:25:47;;;;;;;41.38;28.58;;;;;;;;;;6253094;28;20123;-65
2021/10/29 17:28:50;;;;;;;44.17;28.42;;;;;;;;;;6261208;28;20160;-65
2021/10/29 17:31:52;;;;;;;53.63;29.05;;;;;;;;;;6236916;28;20120;-65
2021/10/29 17:34:53;;;;;;;39.85;28.38;;;;;;;;;;6260738;28;20138;-65
2021/10/29 17:37:54;;;;;;;41.25;29.23;;;;;;;;;;6238630;28;20140;-65
2021/10/29 17:40:57;;;;;;;48.28;32.83;;;;;;;;;;6238108;28;20141;-64
2021/10/29 17:44:00;;;;;;;66.50;42.00;;;;;;;;;;6263179;28;20049;-66
2021/10/29 17:47:02;;;;;;;45.10;31.33;;;;;;;;;;6238320;28;20073;-65
2021/10/29 17:50:04;;;;;;;41.50;29.58;;;;;;;;;;6254993;28;20064;-65
2021/10/29 17:53:05;;;;;;;40.95;28.58;;;;;;;;;;6246482;28;20123;-64
2021/10/29 17:56:07;;;;;;;40.95;29.73;;;;;;;;;;6240337;28;20716;-65
2021/10/29 17:59:09;;;;;;;47.15;29.65;;;;;;;;;;6254961;28;20037;-65
2021/10/29 18:02:12;;;;;;;48.17;28.52;;;;;;;;;;6238732;28;20239;-65
2021/10/29 18:05:16;;;;;;;43.85;28.52;;;;;;;;;;6253019;28;20131;-65
2021/10/29 18:08:23;;;;;;;43.17;29.52;;;;;;;;;;6249323;28;20057;-65
2021/10/29 18:11:25;;;;;;;46.63;29.88;;;;;;;;;;6240024;28;20053;-65
2021/10/29 18:14:28;;;;;;;45.80;30.23;;;;;;;;;;6255523;28;20092;-65
2021/10/29 18:17:30;;;;;;;44.70;30.42;;;;;;;;;;6237541;28;20037;-65
2021/10/29 18:20:31;;;;;;;45.60;30.08;;;;;;;;;;6244843;28;20128;-65
2021/10/29 18:23:33;;;;;;;45.00;31.30;;;;;;;;;;6259655;28;20053;-65
2021/10/29 18:26:34;;;;;;;46.38;30.33;;;;;;;;;;6245642;28;20051;-65
2021/10/29 18:29:38;;;;;;;47.40;30.45;;;;;;;;;;6258682;28;20045;-65
2021/10/29 18:32:40;;;;;;;47.58;31.60;;;;;;;;;;6247360;28;20041;-65
2021/10/29 18:35:41;;;;;;;48.60;31.73;;;;;;;;;;6246066;28;20187;-65
2021/10/29 18:38:43;;;;;;;45.80;31.90;;;;;;;;;;6259098;28;20053;-65
2021/10/29 18:41:44;;;;;;;48.97;29.67;;;;;;;;;;6251470;28;20045;-65
2021/10/29 18:44:47;;;;;;;41.65;29.98;;;;;;;;;;6266727;28;20191;-65
2021/10/29 18:47:48;;;;;;;47.58;30.73;;;;;;;;;;6248856;28;20102;-65
2021/10/29 18:50:50;;;;;;;47.90;32.55;;;;;;;;;;6242221;28;20037;-65
2021/10/29 18:53:52;;;;;;;47.88;31.38;;;;;;;;;;6263602;28;20087;-65
2021/10/29 18:56:53;;;;;;;48.47;31.45;;;;;;;;;;6255405;28;20045;-65
2021/10/29 18:59:56;;;;;;;50.45;32.55;;;;;;;;;;6262284;28;20127;-65
2021/10/29 19:02:58;;;;;;;53.83;33.53;;;;;;;;;;6245677;28;20037;-65
2021/10/29 19:05:59;;;;;;;48.17;31.60;;;;;;;;;;6254580;28;20396;-65
2021/10/29 19:09:01;;;;;;;49.90;33.30;;;;;;;;;;6263947;28;20168;-65
2021/10/29 19:12:02;;;;;;;47.88;33.03;;;;;;;;;;6253709;28;20049;-65
2021/10/29 19:15:07;;;;;;;50.47;33.28;;;;;;;;;;6257179;28;20053;-65
2021/10/29 19:18:09;;;;;;;47.60;32.20;;;;;;;;;;6249415;28;20042;-65
2021/10/29 19:21:10;;;;;;;54.05;34.42;;;;;;;;;;6254085;28;20143;-65
2021/10/29 19:24:11;;;;;;;52.45;33.35;;;;;;;;;;6262304;28;20139;-65
2021/10/29 19:27:13;;;;;;;50.58;32.97;;;;;;;;;;6251612;28;20057;-65
2021/10/29 19:30:16;;;;;;;46.42;32.58;;;;;;;;;;6254510;28;20222;-65
2021/10/29 19:33:18;;;;;;;47.40;34.60;;;;;;;;;;6255727;28;20124;-65
2021/10/29 19:36:25;;;;;;;53.97;33.80;;;;;;;;;;6253536;28;20041;-65
2021/10/29 19:39:37;;;;;;;50.30;34.28;;;;;;;;;;6268687;28;20392;-65
2021/10/29 19:42:39;;;;;;;50.40;35.30;;;;;;;;;;6260608;28;20044;-65
2021/10/29 19:45:42;;;;;;;54.17;35.80;;;;;;;;;;6246216;28;20987;-65
2021/10/29 19:48:43;;;;;;;56.23;35.77;;;;;;;;;;6261148;28;20382;-65
2021/10/29 19:51:45;;;;;;;56.38;35.67;;;;;;;;;;6248159;28;20073;-65
2021/10/29 19:54:49;;;;;;;54.40;35.85;;;;;;;;;;6262137;28;20053;-65
2021/10/29 20:01:07;;;;;;;54.60;34.80;;;;;;;;;;6234625;28;20065;-65
2021/10/29 20:04:09;;;;;;;50.80;34.50;;;;;;;;;;6261804;28;20539;-65
2021/10/29 20:07:11;;;;;;;58.83;35.78;;;;;;;;;;6246336;28;20069;-65
2021/10/29 20:10:13;;;;;;;56.92;35.50;;;;;;;;;;6251553;28;20044;-66
2021/10/29 20:13:14;;;;;;;52.63;35.50;;;;;;;;;;6265064;28;20132;-65
2021/10/29 20:16:17;;;;;;;51.70;35.03;;;;;;;;;;6247292;28;20051;-65
2021/10/29 20:19:19;;;;;;;49.00;34.72;;;;;;;;;;6253408;28;20120;-65
2021/10/29 20:22:21;;;;;;;52.55;33.53;;;;;;;;;;6243902;28;20080;-65
2021/10/29 20:25:22;;;;;;;49.33;34.90;;;;;;;;;;6244654;28;20049;-65
2021/10/29 20:28:24;;;;;;;49.63;33.60;;;;;;;;;;6260107;28;20131;-65
2021/10/29 20:31:26;;;;;;;49.75;33.33;;;;;;;;;;6242321;28;20513;-65
2021/10/29 20:34:28;;;;;;;50.33;33.40;;;;;;;;;;6258117;28;20052;-65
2021/10/29 20:37:29;;;;;;;48.25;32.28;;;;;;;;;;6248139;28;20052;-65
2021/10/29 20:40:30;;;;;;;50.88;33.10;;;;;;;;;;6254939;28;20124;-65
2021/10/29 20:43:32;;;;;;;56.40;33.03;;;;;;;;;;6260084;28;20049;-65
2021/10/29 20:46:35;;;;;;;49.60;32.58;;;;;;;;;;6235839;28;20095;-65
2021/10/29 20:49:37;;;;;;;52.97;35.28;;;;;;;;;;6259982;28;20045;-65
2021/10/29 20:52:38;;;;;;;54.50;33.78;;;;;;;;;;6244721;28;20500;-65
2021/10/29 20:55:40;;;;;;;46.72;32.42;;;;;;;;;;6247404;28;20619;-65
2021/10/29 20:58:41;;;;;;;48.13;31.83;;;;;;;;;;6258668;28;20178;-65
2021/10/29 21:01:45;;;;;;;50.10;32.63;;;;;;;;;;6231523;28;20203;-65
2021/10/29 21:04:47;;;;;;;45.97;31.80;;;;;;;;;;6262347;28;20053;-64
2021/10/29 21:07:48;;;;;;;49.63;32.22;;;;;;;;;;6252270;28;20601;-65
2021/10/29 21:10:53;;;;;;;40.85;29.33;;;;;;;;;;6250332;28;20888;-65
2021/10/29 21:13:54;;;;;;;44.58;31.65;;;;;;;;;;6251643;28;20187;-65
2021/10/29 21:16:57;;;;;;;47.72;31.77;;;;;;;;;;6243876;28;20049;-65
2021/10/29 21:19:59;;;;;;;40.92;31.50;;;;;;;;;;6260374;28;20086;-65
2021/10/29 21:23:00;;;;;;;47.17;31.27;;;;;;;;;;6248870;28;20069;-65
2021/10/29 21:26:01;;;;;;;46.40;32.17;;;;;;;;;;6252448;28;20174;-65
2021/10/29 21:29:03;;;;;;;45.63;32.45;;;;;;;;;;6259688;28;20445;-65
2021/10/29 21:32:06;;;;;;;45.78;31.48;;;;;;;;;;6240227;28;20139;-65
2021/10/29 21:35:08;;;;;;;46.20;31.40;;;;;;;;;;6253575;28;20069;-65